Time;durP1;ratioP1;P1;durP2;ratioP2;P2;SDS_P1;SDS_P2;PMS_P1;PMS_P2;Temp;Humidity;BMP_temperature;BMP_pressure;BME280_temperature;BME280_humidity;BME280_pressure;Samples;Min_cycle;Max_cycle;Signal;HPM_P1;HPM_P2
2021/09/28 00:00:02;;;;;;;35.50;20.08;;;;;;;;;;2095775;28;20184;-63
2021/09/28 00:01:15;;;;;;;31.75;20.05;;;;;;;;;;2091413;28;20186;-64
2021/09/28 00:02:15;;;;;;;30.35;20.00;;;;;;;;;;2099683;28;20286;-60
2021/09/28 00:03:15;;;;;;;32.25;20.70;;;;;;;;;;2082326;28;20169;-60
2021/09/28 00:04:15;;;;;;;39.13;20.90;;;;;;;;;;2081501;28;20547;-63
2021/09/28 00:05:15;;;;;;;33.85;20.25;;;;;;;;;;2095682;28;20662;-62
2021/09/28 00:06:16;;;;;;;41.50;22.13;;;;;;;;;;2090435;28;20176;-61
2021/09/28 00:07:16;;;;;;;32.40;20.67;;;;;;;;;;2090506;28;20195;-61
2021/09/28 00:08:17;;;;;;;34.40;21.08;;;;;;;;;;2098709;28;20167;-62
2021/09/28 00:09:17;;;;;;;32.63;20.58;;;;;;;;;;2097930;28;20204;-59
2021/09/28 00:10:17;;;;;;;37.55;23.70;;;;;;;;;;2098811;28;20187;-62
2021/09/28 00:11:17;;;;;;;33.47;22.55;;;;;;;;;;2099078;28;20179;-59
2021/09/28 00:12:18;;;;;;;35.08;23.17;;;;;;;;;;2092490;28;20601;-62
2021/09/28 00:13:19;;;;;;;34.08;22.15;;;;;;;;;;2093064;28;20184;-62
2021/09/28 00:14:20;;;;;;;34.92;22.67;;;;;;;;;;2093894;28;20247;-63
2021/09/28 00:15:21;;;;;;;33.25;22.98;;;;;;;;;;2101103;28;20190;-63
2021/09/28 00:16:21;;;;;;;38.03;23.75;;;;;;;;;;2098127;28;20172;-62
2021/09/28 00:17:21;;;;;;;36.67;22.98;;;;;;;;;;2098768;28;20764;-63
2021/09/28 00:18:22;;;;;;;41.88;24.70;;;;;;;;;;2095786;28;20198;-62
2021/09/28 00:19:22;;;;;;;44.00;23.40;;;;;;;;;;2092840;28;20216;-62
2021/09/28 00:20:23;;;;;;;38.85;24.73;;;;;;;;;;2101295;28;20248;-63
2021/09/28 00:21:24;;;;;;;41.00;25.33;;;;;;;;;;2092947;28;20878;-63
2021/09/28 00:22:24;;;;;;;39.63;24.60;;;;;;;;;;2091889;28;20282;-63
2021/09/28 00:23:25;;;;;;;43.88;25.85;;;;;;;;;;2095121;28;20998;-65
2021/09/28 00:24:25;;;;;;;44.20;25.23;;;;;;;;;;2096635;28;20200;-63
2021/09/28 00:25:25;;;;;;;44.58;25.08;;;;;;;;;;2102963;28;20654;-63
2021/09/28 00:26:25;;;;;;;50.22;27.48;;;;;;;;;;2096446;28;20251;-62
2021/09/28 00:27:26;;;;;;;46.83;26.13;;;;;;;;;;2095834;28;20175;-63
2021/09/28 00:28:28;;;;;;;48.72;26.13;;;;;;;;;;2105778;28;20171;-64
2021/09/28 00:29:28;;;;;;;40.67;27.48;;;;;;;;;;2098432;28;20164;-63
2021/09/28 00:30:28;;;;;;;49.83;26.65;;;;;;;;;;2096904;28;20251;-64
2021/09/28 00:31:29;;;;;;;42.67;26.25;;;;;;;;;;2104752;28;20159;-63
2021/09/28 00:32:29;;;;;;;44.42;26.45;;;;;;;;;;2105865;28;20171;-61
2021/09/28 00:33:29;;;;;;;44.25;26.83;;;;;;;;;;2105615;28;20234;-62
2021/09/28 00:34:30;;;;;;;42.45;27.75;;;;;;;;;;2092025;28;20210;-63
2021/09/28 00:35:30;;;;;;;47.75;26.05;;;;;;;;;;2088899;28;20180;-63
2021/09/28 00:36:30;;;;;;;45.78;27.67;;;;;;;;;;2092050;28;20175;-63
2021/09/28 00:37:30;;;;;;;42.80;26.73;;;;;;;;;;2096343;28;20187;-65
2021/09/28 00:38:31;;;;;;;46.70;27.63;;;;;;;;;;2103969;28;20189;-62
2021/09/28 00:39:31;;;;;;;42.65;27.00;;;;;;;;;;2094312;28;20695;-64
2021/09/28 00:40:31;;;;;;;43.35;28.45;;;;;;;;;;2089047;28;20183;-64
2021/09/28 00:41:31;;;;;;;48.63;28.83;;;;;;;;;;2081808;28;20173;-61
2021/09/28 00:42:32;;;;;;;46.45;29.27;;;;;;;;;;2089811;28;20195;-64
2021/09/28 00:43:53;;;;;;;55.80;28.90;;;;;;;;;;2089604;28;20175;-60
2021/09/28 00:44:53;;;;;;;47.00;27.15;;;;;;;;;;2093814;28;20642;-58
2021/09/28 00:45:54;;;;;;;43.90;24.75;;;;;;;;;;2098871;28;20262;-58
2021/09/28 00:46:54;;;;;;;46.97;27.13;;;;;;;;;;2078256;28;20188;-64
2021/09/28 00:47:54;;;;;;;47.55;29.20;;;;;;;;;;2072781;28;20173;-62
2021/09/28 00:48:55;;;;;;;47.28;29.92;;;;;;;;;;2089383;28;20285;-63
2021/09/28 00:49:55;;;;;;;49.10;30.13;;;;;;;;;;2092877;28;20565;-60
2021/09/28 00:50:55;;;;;;;45.72;30.05;;;;;;;;;;2089694;28;20199;-61
2021/09/28 00:51:55;;;;;;;45.97;29.58;;;;;;;;;;2093891;28;20224;-61
2021/09/28 00:52:56;;;;;;;48.95;29.33;;;;;;;;;;2082981;28;20255;-63
2021/09/28 00:53:57;;;;;;;47.47;28.75;;;;;;;;;;2075967;28;20199;-61
2021/09/28 00:54:57;;;;;;;57.58;30.23;;;;;;;;;;2088872;28;20237;-60
2021/09/28 00:55:58;;;;;;;56.95;31.88;;;;;;;;;;2089785;28;20179;-61
2021/09/28 00:56:58;;;;;;;51.33;30.92;;;;;;;;;;2081417;28;20185;-63
2021/09/28 00:58:02;;;;;;;52.83;29.77;;;;;;;;;;2085625;28;20184;-62
2021/09/28 00:59:03;;;;;;;56.00;29.90;;;;;;;;;;2081439;28;20172;-60
2021/09/28 01:00:04;;;;;;;50.53;29.60;;;;;;;;;;2080859;28;20172;-62
2021/09/28 01:01:05;;;;;;;54.88;31.23;;;;;;;;;;2094612;28;20163;-58
2021/09/28 01:02:06;;;;;;;51.42;30.20;;;;;;;;;;2098233;28;20294;-62
2021/09/28 01:03:07;;;;;;;51.35;30.48;;;;;;;;;;2093432;28;20184;-60
2021/09/28 01:04:07;;;;;;;57.08;33.03;;;;;;;;;;2072985;28;20232;-61
2021/09/28 01:05:08;;;;;;;56.63;31.23;;;;;;;;;;2070172;28;20252;-60
2021/09/28 01:06:08;;;;;;;56.30;31.90;;;;;;;;;;2086327;28;20504;-59
2021/09/28 01:07:09;;;;;;;50.15;31.63;;;;;;;;;;2095069;28;20255;-58
2021/09/28 01:08:09;;;;;;;48.25;31.13;;;;;;;;;;2098189;28;20195;-63
2021/09/28 01:09:11;;;;;;;52.95;32.90;;;;;;;;;;2097729;28;20182;-63
2021/09/28 01:10:11;;;;;;;55.40;31.85;;;;;;;;;;2090333;28;20164;-65
2021/09/28 01:11:12;;;;;;;52.65;32.63;;;;;;;;;;2090355;28;20699;-63
2021/09/28 01:12:12;;;;;;;56.38;33.53;;;;;;;;;;2090815;28;20203;-60
2021/09/28 01:13:12;;;;;;;62.38;32.22;;;;;;;;;;2095710;28;20213;-60
2021/09/28 01:14:12;;;;;;;60.22;33.58;;;;;;;;;;2098665;28;20167;-58
2021/09/28 01:15:12;;;;;;;57.75;33.42;;;;;;;;;;2098208;28;20534;-60
2021/09/28 01:16:13;;;;;;;65.05;32.80;;;;;;;;;;2098567;28;20174;-63
2021/09/28 01:17:17;;;;;;;52.53;30.77;;;;;;;;;;2090087;28;20215;-60
2021/09/28 01:18:18;;;;;;;53.25;30.05;;;;;;;;;;2090685;28;20172;-61
2021/09/28 01:19:19;;;;;;;49.80;32.03;;;;;;;;;;2093423;28;20311;-63
2021/09/28 01:20:19;;;;;;;55.42;32.65;;;;;;;;;;2096851;28;20170;-62
2021/09/28 01:21:20;;;;;;;65.97;33.95;;;;;;;;;;2091463;28;20178;-60
2021/09/28 01:22:20;;;;;;;58.25;33.03;;;;;;;;;;2096113;28;20686;-63
2021/09/28 01:23:20;;;;;;;53.70;30.88;;;;;;;;;;2098349;28;20209;-64
2021/09/28 01:24:21;;;;;;;52.28;30.50;;;;;;;;;;2089354;28;20206;-62
2021/09/28 01:25:21;;;;;;;60.60;33.50;;;;;;;;;;2088819;28;20523;-62
2021/09/28 01:26:24;;;;;;;54.05;31.85;;;;;;;;;;2093725;28;20171;-61
2021/09/28 01:27:24;;;;;;;61.63;34.38;;;;;;;;;;2096730;28;20167;-63
2021/09/28 01:28:25;;;;;;;57.92;32.67;;;;;;;;;;2096550;28;20539;-63
2021/09/28 01:29:25;;;;;;;51.40;31.17;;;;;;;;;;2089969;28;20651;-60
2021/09/28 01:30:25;;;;;;;50.95;30.85;;;;;;;;;;2096341;28;20177;-59
2021/09/28 01:31:25;;;;;;;53.60;29.60;;;;;;;;;;2090678;28;20536;-59
2021/09/28 01:32:26;;;;;;;53.70;32.05;;;;;;;;;;2097307;28;20167;-60
2021/09/28 01:33:26;;;;;;;51.28;30.33;;;;;;;;;;2090731;28;20264;-60
2021/09/28 01:34:26;;;;;;;48.90;30.65;;;;;;;;;;2089876;28;20266;-62
2021/09/28 01:35:27;;;;;;;48.65;29.45;;;;;;;;;;2090037;28;20220;-60
2021/09/28 01:36:27;;;;;;;55.22;30.40;;;;;;;;;;2097144;28;20174;-63
2021/09/28 01:37:27;;;;;;;51.95;30.80;;;;;;;;;;2094202;28;20222;-63
2021/09/28 01:38:28;;;;;;;50.83;30.95;;;;;;;;;;2089563;28;20254;-59
2021/09/28 01:39:28;;;;;;;44.90;29.88;;;;;;;;;;2095685;28;20190;-60
2021/09/28 01:40:28;;;;;;;46.60;30.63;;;;;;;;;;2096798;28;20163;-56
2021/09/28 01:41:29;;;;;;;45.58;28.83;;;;;;;;;;2091383;28;20215;-57
2021/09/28 01:42:29;;;;;;;47.17;29.17;;;;;;;;;;2092114;28;20281;-62
2021/09/28 01:43:29;;;;;;;58.50;32.30;;;;;;;;;;2089161;28;20623;-61
2021/09/28 01:44:33;;;;;;;49.30;29.33;;;;;;;;;;2097000;28;20555;-62
2021/09/28 01:45:35;;;;;;;50.45;29.50;;;;;;;;;;2088606;28;20171;-62
2021/09/28 01:46:36;;;;;;;49.80;29.50;;;;;;;;;;2096592;28;20197;-59
2021/09/28 01:47:36;;;;;;;48.67;28.60;;;;;;;;;;2093543;28;20683;-63
2021/09/28 01:48:38;;;;;;;42.35;27.75;;;;;;;;;;2088150;28;20167;-60
2021/09/28 01:49:39;;;;;;;46.97;28.08;;;;;;;;;;2088637;28;20176;-62
2021/09/28 01:50:40;;;;;;;50.63;27.95;;;;;;;;;;2089745;28;20183;-59
2021/09/28 01:51:41;;;;;;;50.70;28.80;;;;;;;;;;2090940;28;20175;-64
2021/09/28 01:52:41;;;;;;;42.00;28.20;;;;;;;;;;2097402;28;20542;-61
2021/09/28 01:53:41;;;;;;;51.08;28.25;;;;;;;;;;2095663;28;20217;-63
2021/09/28 01:54:42;;;;;;;46.92;27.17;;;;;;;;;;2088111;28;20218;-61
2021/09/28 01:55:42;;;;;;;48.53;29.95;;;;;;;;;;2080125;28;20195;-60
2021/09/28 01:56:43;;;;;;;46.20;28.92;;;;;;;;;;2082032;28;20192;-62
2021/09/28 01:57:43;;;;;;;45.47;27.25;;;;;;;;;;2093535;28;20188;-63
2021/09/28 01:58:44;;;;;;;43.95;27.95;;;;;;;;;;2096448;28;20254;-62
2021/09/28 01:59:44;;;;;;;42.85;26.63;;;;;;;;;;2095189;28;20171;-61
2021/09/28 02:00:44;;;;;;;44.60;27.42;;;;;;;;;;2090701;28;20179;-59
2021/09/28 02:01:44;;;;;;;43.45;28.45;;;;;;;;;;2092888;28;20202;-61
2021/09/28 02:02:45;;;;;;;44.20;26.58;;;;;;;;;;2091023;28;20203;-62
2021/09/28 02:03:45;;;;;;;47.60;26.90;;;;;;;;;;2095985;28;20224;-60
2021/09/28 02:04:45;;;;;;;44.92;28.75;;;;;;;;;;2092303;28;20665;-57
2021/09/28 02:05:46;;;;;;;44.00;27.30;;;;;;;;;;2097399;28;20647;-62
2021/09/28 02:06:46;;;;;;;41.00;26.75;;;;;;;;;;2097598;28;20290;-60
2021/09/28 02:07:46;;;;;;;45.10;27.52;;;;;;;;;;2095107;28;20163;-60
2021/09/28 02:08:47;;;;;;;39.22;26.90;;;;;;;;;;2089221;28;20682;-60
2021/09/28 02:09:47;;;;;;;44.60;26.90;;;;;;;;;;2093899;28;20175;-62
2021/09/28 02:10:47;;;;;;;45.78;26.88;;;;;;;;;;2097782;28;20563;-61
2021/09/28 02:11:48;;;;;;;48.95;27.50;;;;;;;;;;2089362;28;20626;-63
2021/09/28 02:12:48;;;;;;;48.45;26.95;;;;;;;;;;2080526;28;20172;-61
2021/09/28 02:13:50;;;;;;;39.58;25.50;;;;;;;;;;2089529;28;20574;-58
2021/09/28 02:14:50;;;;;;;44.78;25.70;;;;;;;;;;2097366;28;20355;-63
2021/09/28 02:15:51;;;;;;;47.03;26.58;;;;;;;;;;2088894;28;20409;-63
2021/09/28 02:16:51;;;;;;;47.08;26.83;;;;;;;;;;2089890;28;20257;-61
2021/09/28 02:17:51;;;;;;;48.25;27.50;;;;;;;;;;2097129;28;20216;-61
2021/09/28 02:18:52;;;;;;;48.80;27.38;;;;;;;;;;2096538;28;20724;-60
2021/09/28 02:19:52;;;;;;;46.35;26.42;;;;;;;;;;2085099;28;20823;-61
2021/09/28 02:20:52;;;;;;;49.67;27.40;;;;;;;;;;2077478;28;20165;-61
2021/09/28 02:21:53;;;;;;;48.47;25.60;;;;;;;;;;2095660;28;20173;-61
2021/09/28 02:22:53;;;;;;;40.17;25.58;;;;;;;;;;2097313;28;20182;-62
2021/09/28 02:23:53;;;;;;;39.83;25.60;;;;;;;;;;2094233;28;20175;-58
2021/09/28 02:24:53;;;;;;;40.13;26.10;;;;;;;;;;2098033;28;20178;-61
2021/09/28 02:25:53;;;;;;;42.17;26.02;;;;;;;;;;2088946;28;20290;-58
2021/09/28 02:26:54;;;;;;;39.33;26.42;;;;;;;;;;2083897;28;20270;-61
2021/09/28 02:27:54;;;;;;;49.20;27.40;;;;;;;;;;2087825;28;20171;-55
2021/09/28 02:28:55;;;;;;;49.45;28.05;;;;;;;;;;2088091;28;20172;-63
2021/09/28 02:29:55;;;;;;;45.13;28.10;;;;;;;;;;2089214;28;20647;-63
2021/09/28 02:30:56;;;;;;;50.00;26.80;;;;;;;;;;2093771;28;20168;-61
2021/09/28 02:31:56;;;;;;;43.35;25.33;;;;;;;;;;2089287;28;20195;-58
2021/09/28 02:32:56;;;;;;;47.92;26.73;;;;;;;;;;2096332;28;20174;-60
2021/09/28 02:33:56;;;;;;;42.53;26.95;;;;;;;;;;2085983;28;20198;-61
2021/09/28 02:34:57;;;;;;;46.33;26.33;;;;;;;;;;2086341;28;20167;-61
2021/09/28 02:35:57;;;;;;;38.88;25.83;;;;;;;;;;2092917;28;20605;-59
2021/09/28 02:36:57;;;;;;;38.38;26.08;;;;;;;;;;2094687;28;20193;-62
2021/09/28 02:37:59;;;;;;;38.75;25.08;;;;;;;;;;2097261;28;20252;-60
2021/09/28 02:38:59;;;;;;;36.47;25.50;;;;;;;;;;2096739;28;20216;-62
2021/09/28 02:40:00;;;;;;;39.83;23.67;;;;;;;;;;2097196;28;20252;-60
2021/09/28 02:41:00;;;;;;;43.10;23.85;;;;;;;;;;2093656;28;20212;-56
2021/09/28 02:42:01;;;;;;;37.38;24.05;;;;;;;;;;2097131;28;20174;-57
2021/09/28 02:43:01;;;;;;;47.88;26.38;;;;;;;;;;2093373;28;20254;-60
2021/09/28 02:44:02;;;;;;;45.17;25.35;;;;;;;;;;2096620;28;20174;-58
2021/09/28 02:45:05;;;;;;;42.30;25.27;;;;;;;;;;2088330;28;20745;-60
2021/09/28 02:46:05;;;;;;;39.28;25.13;;;;;;;;;;2079313;28;20172;-61
2021/09/28 02:47:06;;;;;;;48.00;26.67;;;;;;;;;;2085510;28;20191;-63
2021/09/28 02:48:06;;;;;;;41.95;25.35;;;;;;;;;;2096295;28;20174;-61
2021/09/28 02:49:06;;;;;;;43.92;25.58;;;;;;;;;;2097041;28;20163;-58
2021/09/28 02:50:07;;;;;;;43.63;25.95;;;;;;;;;;2094532;28;20697;-58
2021/09/28 02:51:07;;;;;;;43.28;26.58;;;;;;;;;;2093788;28;20206;-60
2021/09/28 02:52:08;;;;;;;46.38;27.42;;;;;;;;;;2096641;28;20174;-61
2021/09/28 02:53:08;;;;;;;39.83;26.58;;;;;;;;;;2097643;28;20187;-61
2021/09/28 02:54:08;;;;;;;41.75;26.00;;;;;;;;;;2093520;28;20180;-62
2021/09/28 02:55:09;;;;;;;42.10;27.55;;;;;;;;;;2093679;28;20175;-61
2021/09/28 02:56:09;;;;;;;39.78;26.50;;;;;;;;;;2096912;28;20179;-61
2021/09/28 02:57:09;;;;;;;49.97;26.85;;;;;;;;;;2090251;28;20261;-60
2021/09/28 02:58:09;;;;;;;44.88;26.27;;;;;;;;;;2089663;28;20179;-62
2021/09/28 02:59:10;;;;;;;45.30;27.88;;;;;;;;;;2093959;28;20237;-62
2021/09/28 03:00:10;;;;;;;39.67;26.63;;;;;;;;;;2096057;28;20592;-60
2021/09/28 03:01:10;;;;;;;37.40;25.48;;;;;;;;;;2098644;28;20179;-60
2021/09/28 03:02:11;;;;;;;44.75;27.48;;;;;;;;;;2093439;28;20298;-59
2021/09/28 03:03:11;;;;;;;45.60;25.67;;;;;;;;;;2096922;28;20253;-60
2021/09/28 03:04:11;;;;;;;41.85;26.63;;;;;;;;;;2099422;28;20168;-61
2021/09/28 03:05:12;;;;;;;40.65;26.23;;;;;;;;;;2099099;28;20732;-59
2021/09/28 03:06:12;;;;;;;42.72;26.35;;;;;;;;;;2099386;28;20245;-60
2021/09/28 03:07:12;;;;;;;46.30;27.17;;;;;;;;;;2099504;28;20191;-60
2021/09/28 03:08:12;;;;;;;43.70;27.50;;;;;;;;;;2099092;28;20507;-61
2021/09/28 03:09:12;;;;;;;45.88;28.08;;;;;;;;;;2098564;28;20171;-62
2021/09/28 03:10:13;;;;;;;45.65;26.80;;;;;;;;;;2092267;28;20698;-60
2021/09/28 03:11:13;;;;;;;45.80;27.35;;;;;;;;;;2090987;28;20236;-60
2021/09/28 03:12:13;;;;;;;49.13;27.63;;;;;;;;;;2099557;28;20183;-62
2021/09/28 03:13:13;;;;;;;56.00;28.90;;;;;;;;;;2097399;28;20171;-59
2021/09/28 03:14:14;;;;;;;44.38;28.00;;;;;;;;;;2095358;28;20189;-59
2021/09/28 03:15:16;;;;;;;47.05;27.83;;;;;;;;;;2092808;28;20233;-60
2021/09/28 03:16:16;;;;;;;51.47;28.83;;;;;;;;;;2090298;28;20208;-60
2021/09/28 03:17:16;;;;;;;53.75;28.67;;;;;;;;;;2089587;28;20219;-61
2021/09/28 03:18:16;;;;;;;47.50;28.70;;;;;;;;;;2097210;28;20182;-60
2021/09/28 03:19:17;;;;;;;47.65;27.77;;;;;;;;;;2102845;28;20167;-61
2021/09/28 03:20:17;;;;;;;41.17;26.25;;;;;;;;;;2097458;28;20187;-62
2021/09/28 03:21:17;;;;;;;47.92;28.80;;;;;;;;;;2104047;28;20167;-60
2021/09/28 03:22:18;;;;;;;44.20;28.50;;;;;;;;;;2096422;28;20618;-62
2021/09/28 03:23:18;;;;;;;46.58;27.13;;;;;;;;;;2102954;28;20214;-60
2021/09/28 03:24:19;;;;;;;44.47;28.85;;;;;;;;;;2093335;28;20171;-58
2021/09/28 03:25:19;;;;;;;45.33;27.92;;;;;;;;;;2090450;28;20255;-58
2021/09/28 03:26:19;;;;;;;46.78;28.48;;;;;;;;;;2089222;28;20266;-59
2021/09/28 03:27:19;;;;;;;44.92;27.25;;;;;;;;;;2099229;28;20190;-57
2021/09/28 03:28:20;;;;;;;40.88;26.13;;;;;;;;;;2098685;28;20179;-61
2021/09/28 03:29:20;;;;;;;50.88;28.13;;;;;;;;;;2098841;28;20186;-58
2021/09/28 03:30:20;;;;;;;47.80;27.60;;;;;;;;;;2099182;28;20159;-57
2021/09/28 03:31:20;;;;;;;48.45;28.77;;;;;;;;;;2097690;28;20668;-59
2021/09/28 03:32:21;;;;;;;43.75;28.73;;;;;;;;;;2082198;28;20266;-59
2021/09/28 03:33:21;;;;;;;43.95;27.92;;;;;;;;;;2089024;28;20564;-58
2021/09/28 03:34:21;;;;;;;45.65;27.48;;;;;;;;;;2092021;28;20176;-57
2021/09/28 03:35:21;;;;;;;48.63;30.88;;;;;;;;;;2090996;28;20186;-61
2021/09/28 03:36:22;;;;;;;49.50;28.27;;;;;;;;;;2091142;28;20172;-58
2021/09/28 03:37:22;;;;;;;50.80;30.67;;;;;;;;;;2095257;28;20174;-60
2021/09/28 03:38:22;;;;;;;53.75;30.40;;;;;;;;;;2097631;28;20210;-62
2021/09/28 03:39:23;;;;;;;45.03;29.10;;;;;;;;;;2094287;28;20187;-61
2021/09/28 03:40:25;;;;;;;41.47;27.10;;;;;;;;;;2091873;28;20190;-59
2021/09/28 03:41:26;;;;;;;43.80;28.13;;;;;;;;;;2090598;28;20167;-60
2021/09/28 03:42:26;;;;;;;45.13;29.50;;;;;;;;;;2097980;28;20604;-64
2021/09/28 03:43:26;;;;;;;54.97;29.00;;;;;;;;;;2089460;28;20266;-56
2021/09/28 03:44:27;;;;;;;50.78;31.48;;;;;;;;;;2090181;28;20259;-55
2021/09/28 03:45:27;;;;;;;46.83;30.42;;;;;;;;;;2098519;28;20610;-61
2021/09/28 03:46:27;;;;;;;52.67;30.23;;;;;;;;;;2094345;28;20175;-63
2021/09/28 03:47:27;;;;;;;49.10;30.30;;;;;;;;;;2098602;28;20236;-60
2021/09/28 03:48:27;;;;;;;52.78;30.20;;;;;;;;;;2098231;28;20175;-57
2021/09/28 03:49:28;;;;;;;47.78;28.10;;;;;;;;;;2098271;28;20175;-60
2021/09/28 03:50:28;;;;;;;48.00;27.17;;;;;;;;;;2099060;28;20177;-59
2021/09/28 03:51:28;;;;;;;43.85;28.23;;;;;;;;;;2090810;28;20167;-61
2021/09/28 03:52:29;;;;;;;49.78;30.17;;;;;;;;;;2090059;28;20179;-61
2021/09/28 03:53:29;;;;;;;48.78;29.30;;;;;;;;;;2091830;28;20560;-56
2021/09/28 03:54:29;;;;;;;50.10;30.73;;;;;;;;;;2098286;28;20272;-61
2021/09/28 03:55:30;;;;;;;49.95;30.05;;;;;;;;;;2098296;28;20183;-60
2021/09/28 03:56:30;;;;;;;49.33;29.10;;;;;;;;;;2089749;28;20180;-60
2021/09/28 03:57:30;;;;;;;47.55;29.73;;;;;;;;;;2081874;28;20205;-63
2021/09/28 03:58:30;;;;;;;47.42;27.85;;;;;;;;;;2091479;28;20539;-61
2021/09/28 03:59:31;;;;;;;49.42;28.35;;;;;;;;;;2097487;28;20553;-61
2021/09/28 04:00:31;;;;;;;46.00;29.73;;;;;;;;;;2098656;28;20236;-58
2021/09/28 04:01:31;;;;;;;45.35;29.10;;;;;;;;;;2090756;28;20175;-61
2021/09/28 04:02:31;;;;;;;50.97;30.55;;;;;;;;;;2090034;28;20205;-60
2021/09/28 04:03:32;;;;;;;47.05;29.27;;;;;;;;;;2092697;28;20178;-59
2021/09/28 04:04:32;;;;;;;47.72;30.48;;;;;;;;;;2098560;28;20181;-62
2021/09/28 04:05:32;;;;;;;48.40;28.17;;;;;;;;;;2099009;28;20175;-58
2021/09/28 04:06:33;;;;;;;49.28;29.23;;;;;;;;;;2097342;28;20181;-60
2021/09/28 04:07:35;;;;;;;45.20;29.80;;;;;;;;;;2098457;28;20163;-62
2021/09/28 04:08:35;;;;;;;53.40;30.83;;;;;;;;;;2090061;28;20175;-59
2021/09/28 04:09:35;;;;;;;44.38;28.30;;;;;;;;;;2098879;28;20163;-58
2021/09/28 04:10:37;;;;;;;47.55;28.80;;;;;;;;;;2098727;28;20633;-60
2021/09/28 04:11:37;;;;;;;48.28;28.88;;;;;;;;;;2098386;28;20175;-58
2021/09/28 04:12:38;;;;;;;45.20;27.48;;;;;;;;;;2097547;28;20191;-61
2021/09/28 04:13:40;;;;;;;43.25;27.50;;;;;;;;;;2094398;28;20179;-60
2021/09/28 04:14:43;;;;;;;52.92;27.98;;;;;;;;;;2089596;28;20188;-58
2021/09/28 04:15:44;;;;;;;48.95;27.17;;;;;;;;;;2090320;28;20296;-59
2021/09/28 04:16:44;;;;;;;53.10;28.92;;;;;;;;;;2097845;28;20214;-58
2021/09/28 04:17:44;;;;;;;49.20;28.30;;;;;;;;;;2093751;28;20194;-57
2021/09/28 04:18:46;;;;;;;48.78;29.15;;;;;;;;;;2089861;28;20171;-60
2021/09/28 04:19:46;;;;;;;47.60;28.00;;;;;;;;;;2096259;28;20186;-62
2021/09/28 04:20:46;;;;;;;48.17;28.80;;;;;;;;;;2096933;28;20179;-57
2021/09/28 04:21:46;;;;;;;51.67;29.13;;;;;;;;;;2098613;28;20199;-60
2021/09/28 04:22:47;;;;;;;50.67;28.50;;;;;;;;;;2089398;28;20545;-59
2021/09/28 04:23:49;;;;;;;53.33;30.20;;;;;;;;;;2090202;28;20177;-59
2021/09/28 04:24:50;;;;;;;52.38;30.48;;;;;;;;;;2098138;28;20189;-61
2021/09/28 04:25:50;;;;;;;58.30;30.60;;;;;;;;;;2089675;28;20199;-57
2021/09/28 04:26:51;;;;;;;57.95;31.17;;;;;;;;;;2079096;28;20224;-57
2021/09/28 04:27:51;;;;;;;49.30;29.02;;;;;;;;;;2082373;28;20168;-58
2021/09/28 04:28:51;;;;;;;47.42;28.15;;;;;;;;;;2089929;28;20163;-60
2021/09/28 04:29:52;;;;;;;51.33;28.60;;;;;;;;;;2083533;28;20180;-60
2021/09/28 04:30:52;;;;;;;48.28;28.23;;;;;;;;;;2089649;28;20686;-58
2021/09/28 04:31:52;;;;;;;48.45;27.35;;;;;;;;;;2097950;28;20171;-58
2021/09/28 04:32:52;;;;;;;49.92;27.98;;;;;;;;;;2090513;28;20178;-60
2021/09/28 04:33:53;;;;;;;47.88;28.88;;;;;;;;;;2091761;28;20172;-60
2021/09/28 04:34:53;;;;;;;49.88;30.52;;;;;;;;;;2094562;28;20175;-58
2021/09/28 04:35:53;;;;;;;61.13;33.28;;;;;;;;;;2082504;28;20680;-59
2021/09/28 04:36:53;;;;;;;53.53;31.67;;;;;;;;;;2080969;28;20203;-57
2021/09/28 04:37:54;;;;;;;52.65;29.33;;;;;;;;;;2093419;28;20178;-57
2021/09/28 04:38:54;;;;;;;51.20;28.48;;;;;;;;;;2097545;28;20220;-59
2021/09/28 04:39:54;;;;;;;56.83;29.85;;;;;;;;;;2098650;28;20232;-61
2021/09/28 04:40:55;;;;;;;51.50;30.27;;;;;;;;;;2089138;28;20232;-58
2021/09/28 04:41:55;;;;;;;46.30;27.90;;;;;;;;;;2081582;28;20174;-59
2021/09/28 04:42:55;;;;;;;47.78;28.15;;;;;;;;;;2089982;28;20175;-64
2021/09/28 04:43:55;;;;;;;47.75;28.15;;;;;;;;;;2094747;28;20196;-60
2021/09/28 04:44:56;;;;;;;49.03;28.17;;;;;;;;;;2094201;28;20170;-59
2021/09/28 04:45:56;;;;;;;51.78;30.17;;;;;;;;;;2098268;28;20174;-61
2021/09/28 04:46:56;;;;;;;50.60;29.25;;;;;;;;;;2094736;28;20194;-58
2021/09/28 04:47:56;;;;;;;48.35;28.60;;;;;;;;;;2098179;28;20171;-59
2021/09/28 04:48:57;;;;;;;46.15;28.67;;;;;;;;;;2098325;28;20177;-62
2021/09/28 04:49:57;;;;;;;47.58;27.70;;;;;;;;;;2098674;28;20215;-61
2021/09/28 04:50:57;;;;;;;52.47;28.58;;;;;;;;;;2098329;28;20171;-60
2021/09/28 04:51:57;;;;;;;45.97;26.08;;;;;;;;;;2097740;28;20187;-58
2021/09/28 04:52:58;;;;;;;47.88;28.27;;;;;;;;;;2098507;28;20170;-55
2021/09/28 04:53:58;;;;;;;44.22;28.50;;;;;;;;;;2094600;28;20203;-58
2021/09/28 04:54:58;;;;;;;50.60;26.92;;;;;;;;;;2089775;28;20267;-59
2021/09/28 04:55:59;;;;;;;46.72;27.90;;;;;;;;;;2094080;28;20174;-58
2021/09/28 04:56:59;;;;;;;55.58;27.50;;;;;;;;;;2098114;28;20195;-58
2021/09/28 04:57:59;;;;;;;49.08;28.88;;;;;;;;;;2093342;28;20160;-59
2021/09/28 04:58:59;;;;;;;54.63;28.58;;;;;;;;;;2093942;28;20258;-61
2021/09/28 05:00:00;;;;;;;57.55;31.52;;;;;;;;;;2097584;28;20203;-57
2021/09/28 05:01:00;;;;;;;51.17;29.60;;;;;;;;;;2095933;28;20601;-61
2021/09/28 05:02:00;;;;;;;58.17;31.15;;;;;;;;;;2098267;28;20178;-58
2021/09/28 05:03:00;;;;;;;53.08;30.92;;;;;;;;;;2095361;28;20951;-61
2021/09/28 05:04:01;;;;;;;57.70;29.45;;;;;;;;;;2093300;28;20163;-62
2021/09/28 05:05:01;;;;;;;61.47;31.77;;;;;;;;;;2094835;28;20236;-62
2021/09/28 05:06:01;;;;;;;49.95;29.02;;;;;;;;;;2093570;28;20198;-60
2021/09/28 05:07:02;;;;;;;54.35;31.15;;;;;;;;;;2095731;28;20222;-57
2021/09/28 05:08:02;;;;;;;56.45;30.05;;;;;;;;;;2097477;28;20177;-58
2021/09/28 05:09:02;;;;;;;51.30;30.00;;;;;;;;;;2097010;28;20179;-59
2021/09/28 05:10:03;;;;;;;49.83;28.38;;;;;;;;;;2091154;28;20176;-53
2021/09/28 05:11:03;;;;;;;49.30;27.30;;;;;;;;;;2088575;28;20254;-58
2021/09/28 05:12:04;;;;;;;48.25;27.73;;;;;;;;;;2088574;28;20183;-55
2021/09/28 05:13:05;;;;;;;47.72;28.67;;;;;;;;;;2085625;28;20194;-60
2021/09/28 05:14:05;;;;;;;53.55;29.85;;;;;;;;;;2096020;28;20163;-57
2021/09/28 05:15:06;;;;;;;51.35;28.45;;;;;;;;;;2094700;28;20179;-58
2021/09/28 05:16:06;;;;;;;48.40;27.85;;;;;;;;;;2087994;28;20184;-59
2021/09/28 05:17:06;;;;;;;44.45;28.52;;;;;;;;;;2085215;28;20236;-60
2021/09/28 05:18:07;;;;;;;53.20;28.65;;;;;;;;;;2095147;28;20539;-59
2021/09/28 05:19:07;;;;;;;56.38;28.83;;;;;;;;;;2097207;28;20179;-58
2021/09/28 05:20:08;;;;;;;55.30;30.77;;;;;;;;;;2096656;28;20171;-61
2021/09/28 05:21:09;;;;;;;50.22;28.63;;;;;;;;;;2094256;28;20181;-59
2021/09/28 05:22:09;;;;;;;50.67;27.75;;;;;;;;;;2096483;28;20198;-57
2021/09/28 05:23:10;;;;;;;51.53;29.00;;;;;;;;;;2092793;28;20573;-63
2021/09/28 05:24:10;;;;;;;49.05;28.65;;;;;;;;;;2093613;28;20552;-60
2021/09/28 05:25:11;;;;;;;45.08;27.80;;;;;;;;;;2084707;28;20195;-54
2021/09/28 05:26:14;;;;;;;50.15;28.58;;;;;;;;;;2088631;28;20178;-58
2021/09/28 05:27:15;;;;;;;48.45;27.77;;;;;;;;;;2094866;28;20298;-56
2021/09/28 05:28:15;;;;;;;47.55;28.80;;;;;;;;;;2096857;28;20174;-58
2021/09/28 05:29:15;;;;;;;60.88;30.33;;;;;;;;;;2093716;28;20179;-59
2021/09/28 05:30:15;;;;;;;52.47;29.23;;;;;;;;;;2091811;28;20202;-59
2021/09/28 05:31:16;;;;;;;46.70;29.05;;;;;;;;;;2093459;28;20175;-57
2021/09/28 05:32:16;;;;;;;61.47;29.02;;;;;;;;;;2097149;28;20171;-58
2021/09/28 05:33:16;;;;;;;56.72;28.92;;;;;;;;;;2097362;28;20174;-57
2021/09/28 05:34:17;;;;;;;51.08;26.67;;;;;;;;;;2097327;28;20171;-56
2021/09/28 05:35:18;;;;;;;51.17;28.45;;;;;;;;;;2092299;28;20709;-56
2021/09/28 05:36:18;;;;;;;49.72;30.25;;;;;;;;;;2096335;28;20171;-54
2021/09/28 05:37:19;;;;;;;57.75;30.00;;;;;;;;;;2097778;28;20290;-59
2021/09/28 05:38:19;;;;;;;50.42;30.33;;;;;;;;;;2090457;28;20372;-57
2021/09/28 05:39:19;;;;;;;53.53;29.85;;;;;;;;;;2080426;28;20196;-57
2021/09/28 05:40:19;;;;;;;56.90;30.75;;;;;;;;;;2087025;28;20186;-58
2021/09/28 05:41:20;;;;;;;55.53;31.13;;;;;;;;;;2090678;28;20187;-56
2021/09/28 05:42:20;;;;;;;48.42;29.52;;;;;;;;;;2089439;28;20270;-57
2021/09/28 05:43:20;;;;;;;55.67;30.38;;;;;;;;;;2096109;28;20214;-58
2021/09/28 05:44:21;;;;;;;62.22;30.77;;;;;;;;;;2097122;28;20170;-57
2021/09/28 05:45:21;;;;;;;61.78;31.08;;;;;;;;;;2088383;28;20675;-55
2021/09/28 05:46:21;;;;;;;52.10;28.55;;;;;;;;;;2087447;28;20191;-56
2021/09/28 05:47:21;;;;;;;45.00;29.70;;;;;;;;;;2089138;28;20180;-53
2021/09/28 05:48:22;;;;;;;49.60;29.75;;;;;;;;;;2086999;28;20180;-56
2021/09/28 05:49:22;;;;;;;57.97;31.60;;;;;;;;;;2089226;28;20538;-59
2021/09/28 05:50:22;;;;;;;56.80;31.35;;;;;;;;;;2097211;28;20791;-56
2021/09/28 05:51:25;;;;;;;51.65;30.38;;;;;;;;;;2090111;28;20171;-60